sensor_id;sensor_type;location;lat;lon;timestamp;temperature;humidity
78550;DHT22;68091;52.130;5.570;2023-03-15T00:00:51;1.90;94.80
78550;DHT22;68091;52.130;5.570;2023-03-15T00:03:18;1.80;94.80
78550;DHT22;68091;52.130;5.570;2023-03-15T00:05:45;1.80;94.80
78550;DHT22;68091;52.130;5.570;2023-03-15T00:08:12;1.90;95.00
78550;DHT22;68091;52.130;5.570;2023-03-15T00:10:46;1.80;95.00
78550;DHT22;68091;52.130;5.570;2023-03-15T00:13:13;1.70;95.00
78550;DHT22;68091;52.130;5.570;2023-03-15T00:15:50;1.80;95.00
78550;DHT22;68091;52.130;5.570;2023-03-15T00:18:18;1.70;95.10
78550;DHT22;68091;52.130;5.570;2023-03-15T00:20:45;1.60;95.20
78550;DHT22;68091;52.130;5.570;2023-03-15T00:23:12;1.60;95.20
78550;DHT22;68091;52.130;5.570;2023-03-15T00:25:38;1.60;95.20
78550;DHT22;68091;52.130;5.570;2023-03-15T00:28:04;1.60;95.40
78550;DHT22;68091;52.130;5.570;2023-03-15T00:30:31;1.60;95.40
78550;DHT22;68091;52.130;5.570;2023-03-15T00:32:57;1.50;95.40
78550;DHT22;68091;52.130;5.570;2023-03-15T00:35:23;1.60;95.50
78550;DHT22;68091;52.130;5.570;2023-03-15T00:37:53;1.40;95.50
78550;DHT22;68091;52.130;5.570;2023-03-15T00:40:19;1.40;95.50
78550;DHT22;68091;52.130;5.570;2023-03-15T00:42:45;1.30;95.40
78550;DHT22;68091;52.130;5.570;2023-03-15T00:45:19;1.30;95.50
78550;DHT22;68091;52.130;5.570;2023-03-15T00:47:50;1.30;95.60
78550;DHT22;68091;52.130;5.570;2023-03-15T00:50:16;1.20;95.60
78550;DHT22;68091;52.130;5.570;2023-03-15T00:52:42;1.20;95.60
78550;DHT22;68091;52.130;5.570;2023-03-15T00:55:11;1.20;95.80
78550;DHT22;68091;52.130;5.570;2023-03-15T00:57:41;1.10;95.70
78550;DHT22;68091;52.130;5.570;2023-03-15T01:00:13;1.10;95.70
78550;DHT22;68091;52.130;5.570;2023-03-15T01:02:40;1.10;95.80
78550;DHT22;68091;52.130;5.570;2023-03-15T01:05:07;1.00;95.80
78550;DHT22;68091;52.130;5.570;2023-03-15T01:07:33;1.00;95.90
78550;DHT22;68091;52.130;5.570;2023-03-15T01:10:00;1.00;95.80
78550;DHT22;68091;52.130;5.570;2023-03-15T01:12:30;1.00;95.90
78550;DHT22;68091;52.130;5.570;2023-03-15T01:15:00;0.90;95.90
78550;DHT22;68091;52.130;5.570;2023-03-15T01:17:27;1.00;96.00
78550;DHT22;68091;52.130;5.570;2023-03-15T01:19:52;0.90;96.10
78550;DHT22;68091;52.130;5.570;2023-03-15T01:22:19;0.90;96.10
78550;DHT22;68091;52.130;5.570;2023-03-15T01:24:45;1.00;96.30
78550;DHT22;68091;52.130;5.570;2023-03-15T01:27:11;0.90;96.20
78550;DHT22;68091;52.130;5.570;2023-03-15T01:29:37;0.90;96.30
78550;DHT22;68091;52.130;5.570;2023-03-15T01:32:03;0.90;96.30
78550;DHT22;68091;52.130;5.570;2023-03-15T01:34:28;0.90;96.30
78550;DHT22;68091;52.130;5.570;2023-03-15T01:36:54;0.90;96.30
78550;DHT22;68091;52.130;5.570;2023-03-15T01:39:20;0.90;96.50
78550;DHT22;68091;52.130;5.570;2023-03-15T01:41:46;1.00;96.40
78550;DHT22;68091;52.130;5.570;2023-03-15T01:44:17;1.00;96.50
78550;DHT22;68091;52.130;5.570;2023-03-15T01:46:43;1.00;96.60
78550;DHT22;68091;52.130;5.570;2023-03-15T01:49:23;1.00;96.60
78550;DHT22;68091;52.130;5.570;2023-03-15T01:52:05;1.00;96.60
78550;DHT22;68091;52.130;5.570;2023-03-15T01:54:43;0.90;96.60
78550;DHT22;68091;52.130;5.570;2023-03-15T01:57:35;0.90;96.60
78550;DHT22;68091;52.130;5.570;2023-03-15T02:00:09;0.90;96.80
78550;DHT22;68091;52.130;5.570;2023-03-15T02:02:40;0.90;96.60
78550;DHT22;68091;52.130;5.570;2023-03-15T02:05:13;1.00;96.80
78550;DHT22;68091;52.130;5.570;2023-03-15T02:07:43;1.00;97.10
78550;DHT22;68091;52.130;5.570;2023-03-15T02:10:17;1.00;97.10
78550;DHT22;68091;52.130;5.570;2023-03-15T02:12:49;1.00;97.00
78550;DHT22;68091;52.130;5.570;2023-03-15T02:15:16;1.00;97.00
78550;DHT22;68091;52.130;5.570;2023-03-15T02:17:45;1.00;97.00
78550;DHT22;68091;52.130;5.570;2023-03-15T02:23:16;0.90;96.90
78550;DHT22;68091;52.130;5.570;2023-03-15T02:28:29;0.90;97.10
78550;DHT22;68091;52.130;5.570;2023-03-15T02:30:56;1.00;97.20
78550;DHT22;68091;52.130;5.570;2023-03-15T02:33:31;0.90;97.10
78550;DHT22;68091;52.130;5.570;2023-03-15T02:38:45;0.90;96.90
78550;DHT22;68091;52.130;5.570;2023-03-15T02:41:12;0.90;97.00
78550;DHT22;68091;52.130;5.570;2023-03-15T02:43:40;0.90;97.00
78550;DHT22;68091;52.130;5.570;2023-03-15T02:46:06;0.90;97.00
78550;DHT22;68091;52.130;5.570;2023-03-15T02:48:33;0.80;96.90
78550;DHT22;68091;52.130;5.570;2023-03-15T02:51:00;0.80;96.90
78550;DHT22;68091;52.130;5.570;2023-03-15T02:53:30;0.80;97.00
78550;DHT22;68091;52.130;5.570;2023-03-15T02:55:59;0.80;97.00
78550;DHT22;68091;52.130;5.570;2023-03-15T02:58:24;0.80;97.00
78550;DHT22;68091;52.130;5.570;2023-03-15T03:00:52;0.80;97.10
78550;DHT22;68091;52.130;5.570;2023-03-15T03:03:18;0.80;97.10
78550;DHT22;68091;52.130;5.570;2023-03-15T03:05:44;0.80;97.00
78550;DHT22;68091;52.130;5.570;2023-03-15T03:08:10;0.80;97.10
78550;DHT22;68091;52.130;5.570;2023-03-15T03:10:35;0.80;97.00
78550;DHT22;68091;52.130;5.570;2023-03-15T03:13:01;0.80;97.10
78550;DHT22;68091;52.130;5.570;2023-03-15T03:15:27;0.80;97.10
78550;DHT22;68091;52.130;5.570;2023-03-15T03:17:53;0.80;97.00
78550;DHT22;68091;52.130;5.570;2023-03-15T03:20:19;0.80;97.10
78550;DHT22;68091;52.130;5.570;2023-03-15T03:22:45;0.80;97.10
78550;DHT22;68091;52.130;5.570;2023-03-15T03:25:11;0.80;97.20
78550;DHT22;68091;52.130;5.570;2023-03-15T03:27:38;0.80;97.40
78550;DHT22;68091;52.130;5.570;2023-03-15T03:30:10;0.80;97.10
78550;DHT22;68091;52.130;5.570;2023-03-15T03:32:41;0.70;97.00
78550;DHT22;68091;52.130;5.570;2023-03-15T03:35:08;0.80;97.10
78550;DHT22;68091;52.130;5.570;2023-03-15T03:37:34;0.70;97.00
78550;DHT22;68091;52.130;5.570;2023-03-15T03:40:00;0.70;97.00
78550;DHT22;68091;52.130;5.570;2023-03-15T03:42:26;0.50;97.00
78550;DHT22;68091;52.130;5.570;2023-03-15T03:44:52;0.60;97.10
78550;DHT22;68091;52.130;5.570;2023-03-15T03:47:19;0.60;97.00
78550;DHT22;68091;52.130;5.570;2023-03-15T03:49:45;0.60;97.00
78550;DHT22;68091;52.130;5.570;2023-03-15T03:52:11;0.60;97.10
78550;DHT22;68091;52.130;5.570;2023-03-15T03:54:37;0.60;97.10
78550;DHT22;68091;52.130;5.570;2023-03-15T03:57:03;0.60;97.10
78550;DHT22;68091;52.130;5.570;2023-03-15T03:59:28;0.50;97.00
78550;DHT22;68091;52.130;5.570;2023-03-15T04:01:55;0.50;97.10
78550;DHT22;68091;52.130;5.570;2023-03-15T04:04:21;0.40;97.00
78550;DHT22;68091;52.130;5.570;2023-03-15T04:06:46;0.50;97.10
78550;DHT22;68091;52.130;5.570;2023-03-15T04:09:14;0.50;97.10
78550;DHT22;68091;52.130;5.570;2023-03-15T04:11:40;0.50;97.20
78550;DHT22;68091;52.130;5.570;2023-03-15T04:14:11;0.40;97.20
78550;DHT22;68091;52.130;5.570;2023-03-15T04:16:37;0.40;97.10
78550;DHT22;68091;52.130;5.570;2023-03-15T04:19:03;0.60;97.10
78550;DHT22;68091;52.130;5.570;2023-03-15T04:21:29;0.40;97.10
78550;DHT22;68091;52.130;5.570;2023-03-15T04:24:02;0.40;97.20
78550;DHT22;68091;52.130;5.570;2023-03-15T04:26:28;0.40;97.20
78550;DHT22;68091;52.130;5.570;2023-03-15T04:28:56;0.40;97.20
78550;DHT22;68091;52.130;5.570;2023-03-15T04:31:22;0.30;97.20
78550;DHT22;68091;52.130;5.570;2023-03-15T04:33:52;0.30;97.20
78550;DHT22;68091;52.130;5.570;2023-03-15T04:36:20;0.30;97.10
78550;DHT22;68091;52.130;5.570;2023-03-15T04:38:46;0.30;97.20
78550;DHT22;68091;52.130;5.570;2023-03-15T04:41:13;0.30;97.20
78550;DHT22;68091;52.130;5.570;2023-03-15T04:43:40;0.20;97.20
78550;DHT22;68091;52.130;5.570;2023-03-15T04:46:05;0.30;97.20
78550;DHT22;68091;52.130;5.570;2023-03-15T04:48:31;0.30;97.20
78550;DHT22;68091;52.130;5.570;2023-03-15T04:50:57;0.20;97.20
78550;DHT22;68091;52.130;5.570;2023-03-15T04:53:23;0.20;97.20
78550;DHT22;68091;52.130;5.570;2023-03-15T04:55:49;0.10;97.20
78550;DHT22;68091;52.130;5.570;2023-03-15T04:58:16;0.00;97.10
78550;DHT22;68091;52.130;5.570;2023-03-15T05:00:42;0.00;97.10
78550;DHT22;68091;52.130;5.570;2023-03-15T05:03:08;0.40;97.30
78550;DHT22;68091;52.130;5.570;2023-03-15T05:05:34;0.10;97.20
78550;DHT22;68091;52.130;5.570;2023-03-15T05:08:11;0.00;97.30
78550;DHT22;68091;52.130;5.570;2023-03-15T05:10:37;0.00;97.40
78550;DHT22;68091;52.130;5.570;2023-03-15T05:13:03;0.00;97.40
78550;DHT22;68091;52.130;5.570;2023-03-15T05:15:29;0.10;97.40
78550;DHT22;68091;52.130;5.570;2023-03-15T05:17:55;0.00;97.40
78550;DHT22;68091;52.130;5.570;2023-03-15T05:20:21;0.00;97.30
78550;DHT22;68091;52.130;5.570;2023-03-15T05:22:48;-0.10;97.30
78550;DHT22;68091;52.130;5.570;2023-03-15T05:25:14;-0.10;97.20
78550;DHT22;68091;52.130;5.570;2023-03-15T05:27:39;-0.10;97.20
78550;DHT22;68091;52.130;5.570;2023-03-15T05:30:07;-0.10;97.20
78550;DHT22;68091;52.130;5.570;2023-03-15T05:32:33;-0.10;97.30
78550;DHT22;68091;52.130;5.570;2023-03-15T05:35:00;-0.10;97.40
78550;DHT22;68091;52.130;5.570;2023-03-15T05:37:26;0.20;97.50
78550;DHT22;68091;52.130;5.570;2023-03-15T05:39:52;-0.20;97.30
78550;DHT22;68091;52.130;5.570;2023-03-15T05:42:18;-0.20;97.20
78550;DHT22;68091;52.130;5.570;2023-03-15T05:44:50;-0.20;97.10
78550;DHT22;68091;52.130;5.570;2023-03-15T05:47:16;-0.30;97.10
78550;DHT22;68091;52.130;5.570;2023-03-15T05:49:42;0.00;97.20
78550;DHT22;68091;52.130;5.570;2023-03-15T05:52:08;-0.40;97.20
78550;DHT22;68091;52.130;5.570;2023-03-15T05:54:33;-0.40;97.20
78550;DHT22;68091;52.130;5.570;2023-03-15T05:56:59;-0.30;97.10
78550;DHT22;68091;52.130;5.570;2023-03-15T05:59:25;-0.40;97.10
78550;DHT22;68091;52.130;5.570;2023-03-15T06:01:51;-0.30;97.20
78550;DHT22;68091;52.130;5.570;2023-03-15T06:04:17;-0.30;97.30
78550;DHT22;68091;52.130;5.570;2023-03-15T06:06:42;-0.30;97.30
78550;DHT22;68091;52.130;5.570;2023-03-15T06:09:08;-0.30;97.20
78550;DHT22;68091;52.130;5.570;2023-03-15T06:11:34;-0.30;97.20
78550;DHT22;68091;52.130;5.570;2023-03-15T06:14:00;-0.40;97.20
78550;DHT22;68091;52.130;5.570;2023-03-15T06:16:26;-0.40;97.20
78550;DHT22;68091;52.130;5.570;2023-03-15T06:18:52;-0.50;97.20
78550;DHT22;68091;52.130;5.570;2023-03-15T06:21:17;-0.50;97.20
78550;DHT22;68091;52.130;5.570;2023-03-15T06:23:43;-0.50;97.30
78550;DHT22;68091;52.130;5.570;2023-03-15T06:26:09;-0.40;97.40
78550;DHT22;68091;52.130;5.570;2023-03-15T06:28:35;-0.40;97.40
78550;DHT22;68091;52.130;5.570;2023-03-15T06:31:08;-0.30;97.50
78550;DHT22;68091;52.130;5.570;2023-03-15T06:33:34;-0.20;97.60
78550;DHT22;68091;52.130;5.570;2023-03-15T06:35:59;-0.20;97.60
78550;DHT22;68091;52.130;5.570;2023-03-15T06:38:25;-0.30;97.50
78550;DHT22;68091;52.130;5.570;2023-03-15T06:40:51;-0.40;97.40
78550;DHT22;68091;52.130;5.570;2023-03-15T06:43:17;-0.40;97.50
78550;DHT22;68091;52.130;5.570;2023-03-15T06:45:47;-0.30;97.60
78550;DHT22;68091;52.130;5.570;2023-03-15T06:48:13;-0.20;97.70
78550;DHT22;68091;52.130;5.570;2023-03-15T06:50:40;0.00;97.80
78550;DHT22;68091;52.130;5.570;2023-03-15T06:53:05;-0.10;97.80
78550;DHT22;68091;52.130;5.570;2023-03-15T06:55:31;-0.10;97.70
78550;DHT22;68091;52.130;5.570;2023-03-15T06:57:57;0.10;97.80
78550;DHT22;68091;52.130;5.570;2023-03-15T07:00:23;0.40;98.00
78550;DHT22;68091;52.130;5.570;2023-03-15T07:02:49;0.30;98.10
78550;DHT22;68091;52.130;5.570;2023-03-15T07:05:20;0.40;98.10
78550;DHT22;68091;52.130;5.570;2023-03-15T07:07:49;0.40;98.10
78550;DHT22;68091;52.130;5.570;2023-03-15T07:10:16;0.60;98.10
78550;DHT22;68091;52.130;5.570;2023-03-15T07:12:41;0.60;98.10
78550;DHT22;68091;52.130;5.570;2023-03-15T07:15:08;0.70;98.10
78550;DHT22;68091;52.130;5.570;2023-03-15T07:17:34;0.70;98.10
78550;DHT22;68091;52.130;5.570;2023-03-15T07:20:00;0.80;98.10
78550;DHT22;68091;52.130;5.570;2023-03-15T07:22:26;0.80;98.10
78550;DHT22;68091;52.130;5.570;2023-03-15T07:24:51;0.80;98.00
78550;DHT22;68091;52.130;5.570;2023-03-15T07:27:17;0.90;98.10
78550;DHT22;68091;52.130;5.570;2023-03-15T07:29:43;0.90;98.00
78550;DHT22;68091;52.130;5.570;2023-03-15T07:32:09;0.90;98.00
78550;DHT22;68091;52.130;5.570;2023-03-15T07:34:35;1.00;98.10
78550;DHT22;68091;52.130;5.570;2023-03-15T07:37:01;0.90;98.00
78550;DHT22;68091;52.130;5.570;2023-03-15T07:39:26;1.00;98.00
78550;DHT22;68091;52.130;5.570;2023-03-15T07:41:53;1.10;98.10
78550;DHT22;68091;52.130;5.570;2023-03-15T07:44:19;1.20;98.10
78550;DHT22;68091;52.130;5.570;2023-03-15T07:46:45;1.30;98.10
78550;DHT22;68091;52.130;5.570;2023-03-15T07:49:11;1.30;98.00
78550;DHT22;68091;52.130;5.570;2023-03-15T07:51:37;1.30;98.00
78550;DHT22;68091;52.130;5.570;2023-03-15T07:54:02;1.40;98.00
78550;DHT22;68091;52.130;5.570;2023-03-15T07:56:28;1.40;97.90
78550;DHT22;68091;52.130;5.570;2023-03-15T07:58:54;1.50;98.00
78550;DHT22;68091;52.130;5.570;2023-03-15T08:01:23;1.70;98.10
78550;DHT22;68091;52.130;5.570;2023-03-15T08:03:48;1.70;98.00
78550;DHT22;68091;52.130;5.570;2023-03-15T08:06:14;1.80;98.10
78550;DHT22;68091;52.130;5.570;2023-03-15T08:08:40;1.90;98.00
78550;DHT22;68091;52.130;5.570;2023-03-15T08:11:06;1.90;98.00
78550;DHT22;68091;52.130;5.570;2023-03-15T08:13:32;2.10;98.10
78550;DHT22;68091;52.130;5.570;2023-03-15T08:15:58;2.20;97.90
78550;DHT22;68091;52.130;5.570;2023-03-15T08:18:24;2.40;97.90
78550;DHT22;68091;52.130;5.570;2023-03-15T08:20:50;2.30;97.60
78550;DHT22;68091;52.130;5.570;2023-03-15T08:23:16;2.30;97.30
78550;DHT22;68091;52.130;5.570;2023-03-15T08:25:43;2.30;97.50
78550;DHT22;68091;52.130;5.570;2023-03-15T08:28:09;2.40;96.90
78550;DHT22;68091;52.130;5.570;2023-03-15T08:30:36;2.50;97.00
78550;DHT22;68091;52.130;5.570;2023-03-15T08:33:02;2.60;96.60
78550;DHT22;68091;52.130;5.570;2023-03-15T08:35:28;2.70;96.50
78550;DHT22;68091;52.130;5.570;2023-03-15T08:37:56;2.80;96.50
78550;DHT22;68091;52.130;5.570;2023-03-15T08:40:22;2.80;96.00
78550;DHT22;68091;52.130;5.570;2023-03-15T08:42:52;3.00;96.20
78550;DHT22;68091;52.130;5.570;2023-03-15T08:45:18;3.10;96.20
78550;DHT22;68091;52.130;5.570;2023-03-15T08:47:45;3.20;95.90
78550;DHT22;68091;52.130;5.570;2023-03-15T08:50:12;3.20;95.90
78550;DHT22;68091;52.130;5.570;2023-03-15T08:52:38;3.30;95.70
78550;DHT22;68091;52.130;5.570;2023-03-15T08:55:05;3.40;95.80
78550;DHT22;68091;52.130;5.570;2023-03-15T08:57:31;3.50;95.70
78550;DHT22;68091;52.130;5.570;2023-03-15T09:00:02;3.70;94.90
78550;DHT22;68091;52.130;5.570;2023-03-15T09:02:33;3.80;94.80
78550;DHT22;68091;52.130;5.570;2023-03-15T09:04:58;3.90;94.40
78550;DHT22;68091;52.130;5.570;2023-03-15T09:07:24;4.00;94.40
78550;DHT22;68091;52.130;5.570;2023-03-15T09:09:53;4.10;94.50
78550;DHT22;68091;52.130;5.570;2023-03-15T09:12:19;4.10;93.90
78550;DHT22;68091;52.130;5.570;2023-03-15T09:14:46;4.10;93.40
78550;DHT22;68091;52.130;5.570;2023-03-15T09:17:12;4.10;93.50
78550;DHT22;68091;52.130;5.570;2023-03-15T09:19:38;4.30;93.70
78550;DHT22;68091;52.130;5.570;2023-03-15T09:22:05;4.40;92.90
78550;DHT22;68091;52.130;5.570;2023-03-15T09:24:31;4.50;92.30
78550;DHT22;68091;52.130;5.570;2023-03-15T09:26:57;4.60;92.30
78550;DHT22;68091;52.130;5.570;2023-03-15T09:29:23;4.80;92.10
78550;DHT22;68091;52.130;5.570;2023-03-15T09:31:49;4.90;91.10
78550;DHT22;68091;52.130;5.570;2023-03-15T09:34:18;5.10;91.30
78550;DHT22;68091;52.130;5.570;2023-03-15T09:36:44;5.20;90.70
78550;DHT22;68091;52.130;5.570;2023-03-15T09:39:10;5.50;90.80
78550;DHT22;68091;52.130;5.570;2023-03-15T09:41:44;5.60;89.60
78550;DHT22;68091;52.130;5.570;2023-03-15T09:55:19;6.00;85.90
78550;DHT22;68091;52.130;5.570;2023-03-15T09:58:01;6.10;86.30
78550;DHT22;68091;52.130;5.570;2023-03-15T10:00:46;6.20;85.20
78550;DHT22;68091;52.130;5.570;2023-03-15T10:03:26;6.20;85.20
78550;DHT22;68091;52.130;5.570;2023-03-15T10:05:56;6.10;84.20
78550;DHT22;68091;52.130;5.570;2023-03-15T10:08:23;6.20;83.30
78550;DHT22;68091;52.130;5.570;2023-03-15T10:14:04;6.40;80.20
78550;DHT22;68091;52.130;5.570;2023-03-15T10:16:42;6.50;81.00
78550;DHT22;68091;52.130;5.570;2023-03-15T10:29:55;7.00;73.90
78550;DHT22;68091;52.130;5.570;2023-03-15T10:32:30;7.10;73.20
78550;DHT22;68091;52.130;5.570;2023-03-15T10:35:05;7.10;76.20
78550;DHT22;68091;52.130;5.570;2023-03-15T10:37:35;7.10;71.20
78550;DHT22;68091;52.130;5.570;2023-03-15T10:40:01;7.30;72.70
78550;DHT22;68091;52.130;5.570;2023-03-15T10:42:32;7.20;71.70
78550;DHT22;68091;52.130;5.570;2023-03-15T10:45:20;7.40;71.80
78550;DHT22;68091;52.130;5.570;2023-03-15T10:47:47;7.50;70.70
78550;DHT22;68091;52.130;5.570;2023-03-15T10:50:25;7.60;69.70
78550;DHT22;68091;52.130;5.570;2023-03-15T10:52:55;7.60;67.40
78550;DHT22;68091;52.130;5.570;2023-03-15T10:55:34;7.60;66.30
78550;DHT22;68091;52.130;5.570;2023-03-15T10:58:41;7.70;69.00
78550;DHT22;68091;52.130;5.570;2023-03-15T11:01:21;7.80;66.50
78550;DHT22;68091;52.130;5.570;2023-03-15T11:04:00;7.80;68.40
78550;DHT22;68091;52.130;5.570;2023-03-15T11:06:31;8.20;69.70
78550;DHT22;68091;52.130;5.570;2023-03-15T11:09:11;8.20;67.50
78550;DHT22;68091;52.130;5.570;2023-03-15T11:11:56;8.40;65.00
78550;DHT22;68091;52.130;5.570;2023-03-15T11:14:23;8.30;67.80
78550;DHT22;68091;52.130;5.570;2023-03-15T11:16:57;8.40;66.60
78550;DHT22;68091;52.130;5.570;2023-03-15T11:19:27;8.50;67.10
78550;DHT22;68091;52.130;5.570;2023-03-15T11:21:54;8.50;67.20
78550;DHT22;68091;52.130;5.570;2023-03-15T11:26:46;8.30;65.60
78550;DHT22;68091;52.130;5.570;2023-03-15T11:29:20;8.10;66.10
78550;DHT22;68091;52.130;5.570;2023-03-15T11:31:48;8.10;62.90
78550;DHT22;68091;52.130;5.570;2023-03-15T11:34:38;8.30;65.90
78550;DHT22;68091;52.130;5.570;2023-03-15T11:37:26;8.40;66.00
78550;DHT22;68091;52.130;5.570;2023-03-15T11:40:00;8.60;65.50
78550;DHT22;68091;52.130;5.570;2023-03-15T11:42:34;8.60;62.30
78550;DHT22;68091;52.130;5.570;2023-03-15T11:45:28;8.60;63.90
78550;DHT22;68091;52.130;5.570;2023-03-15T11:47:53;8.60;62.40
78550;DHT22;68091;52.130;5.570;2023-03-15T11:50:20;8.80;61.40
78550;DHT22;68091;52.130;5.570;2023-03-15T11:52:48;8.90;61.00
78550;DHT22;68091;52.130;5.570;2023-03-15T11:55:40;8.90;65.10
78550;DHT22;68091;52.130;5.570;2023-03-15T11:58:30;9.00;61.40
78550;DHT22;68091;52.130;5.570;2023-03-15T12:01:24;9.10;62.10
78550;DHT22;68091;52.130;5.570;2023-03-15T12:06:53;8.70;62.60
78550;DHT22;68091;52.130;5.570;2023-03-15T12:17:49;8.80;59.80
78550;DHT22;68091;52.130;5.570;2023-03-15T12:22:50;8.50;59.70
78550;DHT22;68091;52.130;5.570;2023-03-15T12:25:37;8.50;58.50
78550;DHT22;68091;52.130;5.570;2023-03-15T12:28:16;8.60;57.50
78550;DHT22;68091;52.130;5.570;2023-03-15T12:30:44;8.60;56.00
78550;DHT22;68091;52.130;5.570;2023-03-15T12:33:14;8.60;58.60
78550;DHT22;68091;52.130;5.570;2023-03-15T12:35:41;8.60;56.50
78550;DHT22;68091;52.130;5.570;2023-03-15T12:38:21;8.70;57.80
78550;DHT22;68091;52.130;5.570;2023-03-15T12:43:44;8.80;56.20
78550;DHT22;68091;52.130;5.570;2023-03-15T12:49:28;9.10;57.50
78550;DHT22;68091;52.130;5.570;2023-03-15T12:51:55;9.10;53.00
78550;DHT22;68091;52.130;5.570;2023-03-15T12:54:23;9.00;53.00
78550;DHT22;68091;52.130;5.570;2023-03-15T12:57:00;9.10;53.80
78550;DHT22;68091;52.130;5.570;2023-03-15T12:59:31;9.10;53.10
78550;DHT22;68091;52.130;5.570;2023-03-15T13:01:59;8.90;54.90
78550;DHT22;68091;52.130;5.570;2023-03-15T13:04:27;9.20;54.40
78550;DHT22;68091;52.130;5.570;2023-03-15T13:09:44;9.60;52.80
78550;DHT22;68091;52.130;5.570;2023-03-15T13:15:10;9.90;53.40
78550;DHT22;68091;52.130;5.570;2023-03-15T13:17:46;10.20;51.10
78550;DHT22;68091;52.130;5.570;2023-03-15T13:20:41;10.50;50.50
78550;DHT22;68091;52.130;5.570;2023-03-15T13:23:41;10.40;48.70
78550;DHT22;68091;52.130;5.570;2023-03-15T13:29:14;10.00;51.70
78550;DHT22;68091;52.130;5.570;2023-03-15T13:31:43;10.20;51.50
78550;DHT22;68091;52.130;5.570;2023-03-15T13:36:44;10.80;49.00
78550;DHT22;68091;52.130;5.570;2023-03-15T13:39:22;10.90;49.80
78550;DHT22;68091;52.130;5.570;2023-03-15T13:41:59;10.80;48.50
78550;DHT22;68091;52.130;5.570;2023-03-15T13:44:26;10.60;47.60
78550;DHT22;68091;52.130;5.570;2023-03-15T13:46:53;10.90;49.80
78550;DHT22;68091;52.130;5.570;2023-03-15T13:49:20;11.10;47.60
78550;DHT22;68091;52.130;5.570;2023-03-15T13:51:48;11.30;47.00
78550;DHT22;68091;52.130;5.570;2023-03-15T13:54:32;11.30;47.00
78550;DHT22;68091;52.130;5.570;2023-03-15T13:57:02;11.00;47.80
78550;DHT22;68091;52.130;5.570;2023-03-15T13:59:36;10.80;48.70
78550;DHT22;68091;52.130;5.570;2023-03-15T14:02:04;10.60;50.10
78550;DHT22;68091;52.130;5.570;2023-03-15T14:04:34;10.50;49.80
78550;DHT22;68091;52.130;5.570;2023-03-15T14:07:28;10.20;49.60
78550;DHT22;68091;52.130;5.570;2023-03-15T14:10:21;10.10;50.80
78550;DHT22;68091;52.130;5.570;2023-03-15T14:12:49;10.20;51.80
78550;DHT22;68091;52.130;5.570;2023-03-15T14:15:54;10.00;52.70
78550;DHT22;68091;52.130;5.570;2023-03-15T14:18:20;9.80;52.70
78550;DHT22;68091;52.130;5.570;2023-03-15T14:20:53;9.70;52.90
78550;DHT22;68091;52.130;5.570;2023-03-15T14:23:23;9.50;52.30
78550;DHT22;68091;52.130;5.570;2023-03-15T14:25:59;9.60;51.40
78550;DHT22;68091;52.130;5.570;2023-03-15T14:28:26;9.60;52.10
78550;DHT22;68091;52.130;5.570;2023-03-15T14:30:54;9.40;51.80
78550;DHT22;68091;52.130;5.570;2023-03-15T14:33:37;9.40;51.90
78550;DHT22;68091;52.130;5.570;2023-03-15T14:36:20;9.30;51.70
78550;DHT22;68091;52.130;5.570;2023-03-15T14:38:53;9.40;53.20
78550;DHT22;68091;52.130;5.570;2023-03-15T14:41:23;9.40;53.00
78550;DHT22;68091;52.130;5.570;2023-03-15T14:43:50;9.30;53.00
78550;DHT22;68091;52.130;5.570;2023-03-15T14:46:16;9.40;54.10
78550;DHT22;68091;52.130;5.570;2023-03-15T14:48:42;9.50;53.70
78550;DHT22;68091;52.130;5.570;2023-03-15T14:51:14;9.60;52.80
78550;DHT22;68091;52.130;5.570;2023-03-15T14:53:41;9.70;53.50
78550;DHT22;68091;52.130;5.570;2023-03-15T14:56:10;9.40;51.90
78550;DHT22;68091;52.130;5.570;2023-03-15T14:58:37;9.20;53.00
78550;DHT22;68091;52.130;5.570;2023-03-15T15:01:03;9.30;52.90
78550;DHT22;68091;52.130;5.570;2023-03-15T15:03:40;9.30;54.70
78550;DHT22;68091;52.130;5.570;2023-03-15T15:06:10;9.30;53.90
78550;DHT22;68091;52.130;5.570;2023-03-15T15:08:38;9.20;53.20
78550;DHT22;68091;52.130;5.570;2023-03-15T15:11:06;9.30;52.20
78550;DHT22;68091;52.130;5.570;2023-03-15T15:13:36;9.20;49.50
78550;DHT22;68091;52.130;5.570;2023-03-15T15:16:02;9.10;50.00
78550;DHT22;68091;52.130;5.570;2023-03-15T15:18:31;9.00;50.90
78550;DHT22;68091;52.130;5.570;2023-03-15T15:21:00;9.00;49.60
78550;DHT22;68091;52.130;5.570;2023-03-15T15:23:29;8.90;50.20
78550;DHT22;68091;52.130;5.570;2023-03-15T15:26:10;8.90;50.80
78550;DHT22;68091;52.130;5.570;2023-03-15T15:28:37;8.80;49.20
78550;DHT22;68091;52.130;5.570;2023-03-15T15:31:05;8.80;49.80
78550;DHT22;68091;52.130;5.570;2023-03-15T15:33:31;8.80;51.90
78550;DHT22;68091;52.130;5.570;2023-03-15T15:35:58;8.80;51.10
78550;DHT22;68091;52.130;5.570;2023-03-15T15:38:28;8.90;50.70
78550;DHT22;68091;52.130;5.570;2023-03-15T15:40:57;9.00;52.30
78550;DHT22;68091;52.130;5.570;2023-03-15T15:43:23;9.20;52.70
78550;DHT22;68091;52.130;5.570;2023-03-15T15:45:49;9.20;51.50
78550;DHT22;68091;52.130;5.570;2023-03-15T15:48:17;9.20;51.70
78550;DHT22;68091;52.130;5.570;2023-03-15T15:50:43;9.10;51.20
78550;DHT22;68091;52.130;5.570;2023-03-15T15:53:10;9.10;50.70
78550;DHT22;68091;52.130;5.570;2023-03-15T15:55:40;8.90;50.90
78550;DHT22;68091;52.130;5.570;2023-03-15T15:58:05;9.00;52.40
78550;DHT22;68091;52.130;5.570;2023-03-15T16:00:32;8.90;51.20
78550;DHT22;68091;52.130;5.570;2023-03-15T16:02:58;8.80;51.10
78550;DHT22;68091;52.130;5.570;2023-03-15T16:05:26;8.80;51.70
78550;DHT22;68091;52.130;5.570;2023-03-15T16:07:54;8.70;52.50
78550;DHT22;68091;52.130;5.570;2023-03-15T16:10:25;8.70;51.30
78550;DHT22;68091;52.130;5.570;2023-03-15T16:12:53;8.80;52.90
78550;DHT22;68091;52.130;5.570;2023-03-15T16:15:20;8.80;51.60
78550;DHT22;68091;52.130;5.570;2023-03-15T16:17:46;9.00;50.70
78550;DHT22;68091;52.130;5.570;2023-03-15T16:20:13;9.30;51.40
78550;DHT22;68091;52.130;5.570;2023-03-15T16:22:42;9.60;50.70
78550;DHT22;68091;52.130;5.570;2023-03-15T16:25:15;9.60;49.00
78550;DHT22;68091;52.130;5.570;2023-03-15T16:27:41;9.50;48.60
78550;DHT22;68091;52.130;5.570;2023-03-15T16:30:16;9.40;49.00
78550;DHT22;68091;52.130;5.570;2023-03-15T16:32:43;9.20;49.60
78550;DHT22;68091;52.130;5.570;2023-03-15T16:35:10;8.90;50.60
78550;DHT22;68091;52.130;5.570;2023-03-15T16:37:40;8.70;51.30
78550;DHT22;68091;52.130;5.570;2023-03-15T16:40:25;8.60;51.30
78550;DHT22;68091;52.130;5.570;2023-03-15T16:42:52;8.50;52.80
78550;DHT22;68091;52.130;5.570;2023-03-15T16:45:18;8.30;52.80
78550;DHT22;68091;52.130;5.570;2023-03-15T16:47:44;8.30;53.10
78550;DHT22;68091;52.130;5.570;2023-03-15T16:50:11;8.20;52.60
78550;DHT22;68091;52.130;5.570;2023-03-15T16:52:37;8.00;53.30
78550;DHT22;68091;52.130;5.570;2023-03-15T16:55:04;7.90;53.80
78550;DHT22;68091;52.130;5.570;2023-03-15T16:57:30;7.70;55.30
78550;DHT22;68091;52.130;5.570;2023-03-15T16:59:56;7.70;55.00
78550;DHT22;68091;52.130;5.570;2023-03-15T17:02:26;7.60;55.20
78550;DHT22;68091;52.130;5.570;2023-03-15T17:04:55;7.50;56.60